< < Back
Terminal Aerodrome Forecast


Current Version              Previous Versions:   1  2  3  4  5  6  7  8  9  

Terminal Aerodrome Forecast

148
FTUS42 KGSP 290525
TAFAND
TAF
KAND 290525Z 2906/3006 29004KT P6SM SKC
     FM291700 25006KT P6SM SCT250
     FM300200 VRB03KT P6SM FEW120 BKN250=



Latest METAR

154
SAUS70 KWBC 300500 RRC
MTRAND
METAR KAND 300456Z AUTO 00000KT 10SM CLR 18/14 A2997 RMK AO2 SLP139
T01830144 403110133


USA.gov is the U.S. government's official web portal to all federal, state and local government web resources and services.